sensor_id;sensor_type;location;lat;lon;timestamp;P1;durP1;ratioP1;P2;durP2;ratioP2
75737;SDS011;64356;45.638;13.764;2023-03-21T00:00:16;11.65;;;7.22;;
75737;SDS011;64356;45.638;13.764;2023-03-21T00:02:42;12.50;;;7.60;;
75737;SDS011;64356;45.638;13.764;2023-03-21T00:05:07;11.63;;;7.68;;
75737;SDS011;64356;45.638;13.764;2023-03-21T00:07:33;13.93;;;7.32;;
75737;SDS011;64356;45.638;13.764;2023-03-21T00:09:59;9.52;;;8.00;;
75737;SDS011;64356;45.638;13.764;2023-03-21T00:12:24;12.30;;;7.80;;
75737;SDS011;64356;45.638;13.764;2023-03-21T00:14:50;10.65;;;7.90;;
75737;SDS011;64356;45.638;13.764;2023-03-21T00:17:18;12.45;;;9.18;;
75737;SDS011;64356;45.638;13.764;2023-03-21T00:19:46;13.25;;;8.20;;
75737;SDS011;64356;45.638;13.764;2023-03-21T00:22:12;9.57;;;7.55;;
75737;SDS011;64356;45.638;13.764;2023-03-21T00:24:38;12.68;;;7.95;;
75737;SDS011;64356;45.638;13.764;2023-03-21T00:27:04;15.73;;;9.20;;
75737;SDS011;64356;45.638;13.764;2023-03-21T00:29:31;11.82;;;8.80;;
75737;SDS011;64356;45.638;13.764;2023-03-21T00:31:56;12.63;;;8.15;;
75737;SDS011;64356;45.638;13.764;2023-03-21T00:34:22;11.45;;;7.93;;
75737;SDS011;64356;45.638;13.764;2023-03-21T00:36:48;15.70;;;9.00;;
75737;SDS011;64356;45.638;13.764;2023-03-21T00:39:13;11.75;;;7.90;;
75737;SDS011;64356;45.638;13.764;2023-03-21T00:41:39;10.05;;;7.90;;
75737;SDS011;64356;45.638;13.764;2023-03-21T00:44:05;10.57;;;8.15;;
75737;SDS011;64356;45.638;13.764;2023-03-21T00:46:31;15.05;;;8.38;;
75737;SDS011;64356;45.638;13.764;2023-03-21T00:48:56;10.88;;;7.93;;
75737;SDS011;64356;45.638;13.764;2023-03-21T00:51:22;14.38;;;8.52;;
75737;SDS011;64356;45.638;13.764;2023-03-21T00:53:55;12.70;;;7.55;;
75737;SDS011;64356;45.638;13.764;2023-03-21T00:56:22;12.38;;;8.45;;
75737;SDS011;64356;45.638;13.764;2023-03-21T00:58:48;13.32;;;8.25;;
75737;SDS011;64356;45.638;13.764;2023-03-21T01:01:15;12.07;;;7.65;;
75737;SDS011;64356;45.638;13.764;2023-03-21T01:03:41;10.18;;;7.57;;
75737;SDS011;64356;45.638;13.764;2023-03-21T01:06:08;10.48;;;7.43;;
75737;SDS011;64356;45.638;13.764;2023-03-21T01:08:41;9.38;;;7.63;;
75737;SDS011;64356;45.638;13.764;2023-03-21T01:11:08;14.43;;;7.82;;
75737;SDS011;64356;45.638;13.764;2023-03-21T01:13:36;13.15;;;8.35;;
75737;SDS011;64356;45.638;13.764;2023-03-21T01:16:02;8.07;;;6.95;;
75737;SDS011;64356;45.638;13.764;2023-03-21T01:18:30;8.13;;;7.00;;
75737;SDS011;64356;45.638;13.764;2023-03-21T01:20:57;13.77;;;7.78;;
75737;SDS011;64356;45.638;13.764;2023-03-21T01:23:24;8.65;;;7.60;;
75737;SDS011;64356;45.638;13.764;2023-03-21T01:25:51;10.05;;;7.88;;
75737;SDS011;64356;45.638;13.764;2023-03-21T01:28:19;9.35;;;8.15;;
75737;SDS011;64356;45.638;13.764;2023-03-21T01:30:48;9.60;;;7.03;;
75737;SDS011;64356;45.638;13.764;2023-03-21T01:33:15;10.40;;;8.00;;
75737;SDS011;64356;45.638;13.764;2023-03-21T01:35:42;12.63;;;7.72;;
75737;SDS011;64356;45.638;13.764;2023-03-21T01:38:08;9.60;;;8.27;;
75737;SDS011;64356;45.638;13.764;2023-03-21T01:40:36;14.45;;;8.23;;
75737;SDS011;64356;45.638;13.764;2023-03-21T01:43:18;12.43;;;8.07;;
75737;SDS011;64356;45.638;13.764;2023-03-21T01:48:34;12.43;;;7.40;;
75737;SDS011;64356;45.638;13.764;2023-03-21T01:51:03;9.68;;;7.82;;
75737;SDS011;64356;45.638;13.764;2023-03-21T01:53:29;12.10;;;7.60;;
75737;SDS011;64356;45.638;13.764;2023-03-21T01:55:59;10.90;;;7.38;;
75737;SDS011;64356;45.638;13.764;2023-03-21T01:58:37;10.38;;;7.18;;
75737;SDS011;64356;45.638;13.764;2023-03-21T02:01:06;11.02;;;7.57;;
75737;SDS011;64356;45.638;13.764;2023-03-21T02:03:32;11.25;;;7.97;;
75737;SDS011;64356;45.638;13.764;2023-03-21T02:06:14;8.50;;;7.57;;
75737;SDS011;64356;45.638;13.764;2023-03-21T02:09:00;8.60;;;7.57;;
75737;SDS011;64356;45.638;13.764;2023-03-21T02:11:29;9.93;;;7.22;;
75737;SDS011;64356;45.638;13.764;2023-03-21T02:13:56;9.30;;;7.82;;
75737;SDS011;64356;45.638;13.764;2023-03-21T02:27:46;12.52;;;7.25;;
75737;SDS011;64356;45.638;13.764;2023-03-21T02:35:55;12.40;;;8.45;;
75737;SDS011;64356;45.638;13.764;2023-03-21T02:38:24;10.57;;;7.80;;
75737;SDS011;64356;45.638;13.764;2023-03-21T02:48:40;9.63;;;7.03;;
75737;SDS011;64356;45.638;13.764;2023-03-21T02:51:30;11.48;;;8.15;;
75737;SDS011;64356;45.638;13.764;2023-03-21T02:53:58;8.27;;;6.40;;
75737;SDS011;64356;45.638;13.764;2023-03-21T02:56:28;13.95;;;7.78;;
75737;SDS011;64356;45.638;13.764;2023-03-21T02:58:55;9.02;;;6.78;;
75737;SDS011;64356;45.638;13.764;2023-03-21T03:01:21;11.23;;;7.22;;
75737;SDS011;64356;45.638;13.764;2023-03-21T03:03:50;8.15;;;6.82;;
75737;SDS011;64356;45.638;13.764;2023-03-21T03:06:17;7.97;;;6.75;;
75737;SDS011;64356;45.638;13.764;2023-03-21T03:08:59;9.68;;;7.68;;
75737;SDS011;64356;45.638;13.764;2023-03-21T03:11:53;7.70;;;6.93;;
75737;SDS011;64356;45.638;13.764;2023-03-21T03:20:23;12.27;;;7.40;;
75737;SDS011;64356;45.638;13.764;2023-03-21T03:26:07;8.18;;;6.57;;
75737;SDS011;64356;45.638;13.764;2023-03-21T03:28:44;8.95;;;7.18;;
75737;SDS011;64356;45.638;13.764;2023-03-21T03:31:15;7.55;;;6.65;;
75737;SDS011;64356;45.638;13.764;2023-03-21T03:33:49;8.45;;;6.50;;
75737;SDS011;64356;45.638;13.764;2023-03-21T03:36:18;8.40;;;7.10;;
75737;SDS011;64356;45.638;13.764;2023-03-21T03:38:47;8.80;;;7.28;;
75737;SDS011;64356;45.638;13.764;2023-03-21T03:41:17;8.98;;;7.65;;
75737;SDS011;64356;45.638;13.764;2023-03-21T03:43:48;8.82;;;7.45;;
75737;SDS011;64356;45.638;13.764;2023-03-21T03:46:20;10.13;;;6.75;;
75737;SDS011;64356;45.638;13.764;2023-03-21T03:48:50;11.90;;;7.28;;
75737;SDS011;64356;45.638;13.764;2023-03-21T03:51:30;7.38;;;6.50;;
75737;SDS011;64356;45.638;13.764;2023-03-21T03:54:02;9.23;;;6.90;;
75737;SDS011;64356;45.638;13.764;2023-03-21T03:58:57;9.73;;;6.90;;
75737;SDS011;64356;45.638;13.764;2023-03-21T04:01:23;9.38;;;6.80;;
75737;SDS011;64356;45.638;13.764;2023-03-21T04:03:49;10.95;;;6.72;;
75737;SDS011;64356;45.638;13.764;2023-03-21T04:06:15;8.80;;;6.95;;
75737;SDS011;64356;45.638;13.764;2023-03-21T04:08:42;9.10;;;6.95;;
75737;SDS011;64356;45.638;13.764;2023-03-21T04:11:09;7.95;;;6.43;;
75737;SDS011;64356;45.638;13.764;2023-03-21T04:13:37;7.50;;;6.32;;
75737;SDS011;64356;45.638;13.764;2023-03-21T04:16:03;7.97;;;6.32;;
75737;SDS011;64356;45.638;13.764;2023-03-21T04:18:29;10.43;;;6.50;;
75737;SDS011;64356;45.638;13.764;2023-03-21T04:20:55;8.57;;;6.93;;
75737;SDS011;64356;45.638;13.764;2023-03-21T04:23:21;8.75;;;6.38;;
75737;SDS011;64356;45.638;13.764;2023-03-21T04:25:47;9.25;;;7.18;;
75737;SDS011;64356;45.638;13.764;2023-03-21T04:28:14;7.70;;;6.32;;
75737;SDS011;64356;45.638;13.764;2023-03-21T04:30:40;9.15;;;7.45;;
75737;SDS011;64356;45.638;13.764;2023-03-21T04:33:06;8.18;;;6.53;;
75737;SDS011;64356;45.638;13.764;2023-03-21T04:35:31;11.65;;;6.95;;
75737;SDS011;64356;45.638;13.764;2023-03-21T04:37:58;8.52;;;7.25;;
75737;SDS011;64356;45.638;13.764;2023-03-21T04:40:24;8.07;;;6.75;;
75737;SDS011;64356;45.638;13.764;2023-03-21T04:42:50;9.25;;;6.60;;
75737;SDS011;64356;45.638;13.764;2023-03-21T04:45:15;7.78;;;6.97;;
75737;SDS011;64356;45.638;13.764;2023-03-21T04:47:41;8.13;;;6.70;;
75737;SDS011;64356;45.638;13.764;2023-03-21T04:50:08;9.57;;;6.72;;
75737;SDS011;64356;45.638;13.764;2023-03-21T04:52:34;10.05;;;7.57;;
75737;SDS011;64356;45.638;13.764;2023-03-21T04:55:00;7.82;;;6.45;;
75737;SDS011;64356;45.638;13.764;2023-03-21T04:57:26;9.07;;;6.63;;
75737;SDS011;64356;45.638;13.764;2023-03-21T04:59:52;10.57;;;6.88;;
75737;SDS011;64356;45.638;13.764;2023-03-21T05:02:17;9.32;;;6.45;;
75737;SDS011;64356;45.638;13.764;2023-03-21T05:04:43;10.55;;;7.05;;
75737;SDS011;64356;45.638;13.764;2023-03-21T05:07:09;9.55;;;7.20;;
75737;SDS011;64356;45.638;13.764;2023-03-21T05:09:35;8.38;;;7.03;;
75737;SDS011;64356;45.638;13.764;2023-03-21T05:12:01;8.85;;;6.78;;
75737;SDS011;64356;45.638;13.764;2023-03-21T05:14:27;7.30;;;6.25;;
75737;SDS011;64356;45.638;13.764;2023-03-21T05:16:53;9.38;;;7.38;;
75737;SDS011;64356;45.638;13.764;2023-03-21T05:19:24;8.25;;;6.80;;
75737;SDS011;64356;45.638;13.764;2023-03-21T05:22:06;8.38;;;7.03;;
75737;SDS011;64356;45.638;13.764;2023-03-21T05:24:34;8.93;;;7.80;;
75737;SDS011;64356;45.638;13.764;2023-03-21T05:27:03;12.23;;;7.13;;
75737;SDS011;64356;45.638;13.764;2023-03-21T05:29:29;9.77;;;6.88;;
75737;SDS011;64356;45.638;13.764;2023-03-21T05:31:56;8.65;;;7.60;;
75737;SDS011;64356;45.638;13.764;2023-03-21T05:34:24;11.13;;;8.40;;
75737;SDS011;64356;45.638;13.764;2023-03-21T05:36:51;9.73;;;8.20;;
75737;SDS011;64356;45.638;13.764;2023-03-21T05:39:17;11.82;;;7.50;;
75737;SDS011;64356;45.638;13.764;2023-03-21T05:41:43;8.30;;;7.45;;
75737;SDS011;64356;45.638;13.764;2023-03-21T05:44:08;8.00;;;6.97;;
75737;SDS011;64356;45.638;13.764;2023-03-21T05:46:34;9.27;;;7.38;;
75737;SDS011;64356;45.638;13.764;2023-03-21T05:49:01;8.63;;;7.50;;
75737;SDS011;64356;45.638;13.764;2023-03-21T05:51:26;9.63;;;6.35;;
75737;SDS011;64356;45.638;13.764;2023-03-21T05:53:52;8.25;;;7.15;;
75737;SDS011;64356;45.638;13.764;2023-03-21T05:56:18;8.32;;;6.75;;
75737;SDS011;64356;45.638;13.764;2023-03-21T05:58:44;9.40;;;7.43;;
75737;SDS011;64356;45.638;13.764;2023-03-21T06:01:10;8.93;;;6.65;;
75737;SDS011;64356;45.638;13.764;2023-03-21T06:03:36;8.63;;;7.20;;
75737;SDS011;64356;45.638;13.764;2023-03-21T06:06:02;9.13;;;6.65;;
75737;SDS011;64356;45.638;13.764;2023-03-21T06:08:28;8.50;;;6.72;;
75737;SDS011;64356;45.638;13.764;2023-03-21T06:10:54;10.45;;;6.78;;
75737;SDS011;64356;45.638;13.764;2023-03-21T06:13:20;9.23;;;6.72;;
75737;SDS011;64356;45.638;13.764;2023-03-21T06:15:46;10.88;;;6.78;;
75737;SDS011;64356;45.638;13.764;2023-03-21T06:18:11;9.55;;;7.03;;
75737;SDS011;64356;45.638;13.764;2023-03-21T06:20:37;7.78;;;6.47;;
75737;SDS011;64356;45.638;13.764;2023-03-21T06:23:03;12.13;;;6.55;;
75737;SDS011;64356;45.638;13.764;2023-03-21T06:25:29;7.40;;;6.15;;
75737;SDS011;64356;45.638;13.764;2023-03-21T06:27:55;7.85;;;6.82;;
75737;SDS011;64356;45.638;13.764;2023-03-21T06:30:21;8.65;;;6.78;;
75737;SDS011;64356;45.638;13.764;2023-03-21T06:32:46;8.38;;;6.80;;
75737;SDS011;64356;45.638;13.764;2023-03-21T06:35:12;8.52;;;6.47;;
75737;SDS011;64356;45.638;13.764;2023-03-21T06:37:38;12.52;;;7.28;;
75737;SDS011;64356;45.638;13.764;2023-03-21T06:40:03;8.80;;;6.80;;
75737;SDS011;64356;45.638;13.764;2023-03-21T06:42:31;8.18;;;6.75;;
75737;SDS011;64356;45.638;13.764;2023-03-21T06:44:57;8.10;;;6.80;;
75737;SDS011;64356;45.638;13.764;2023-03-21T06:47:23;10.68;;;7.25;;
75737;SDS011;64356;45.638;13.764;2023-03-21T06:49:48;9.35;;;7.85;;
75737;SDS011;64356;45.638;13.764;2023-03-21T06:52:15;14.27;;;7.63;;
75737;SDS011;64356;45.638;13.764;2023-03-21T06:54:41;11.43;;;8.30;;
75737;SDS011;64356;45.638;13.764;2023-03-21T06:57:07;24.10;;;10.95;;
75737;SDS011;64356;45.638;13.764;2023-03-21T06:59:32;36.50;;;18.23;;
75737;SDS011;64356;45.638;13.764;2023-03-21T07:01:58;35.67;;;19.02;;
75737;SDS011;64356;45.638;13.764;2023-03-21T07:04:24;30.40;;;18.77;;
75737;SDS011;64356;45.638;13.764;2023-03-21T07:06:51;23.17;;;18.92;;
75737;SDS011;64356;45.638;13.764;2023-03-21T07:09:16;26.33;;;15.82;;
75737;SDS011;64356;45.638;13.764;2023-03-21T07:11:43;25.02;;;14.63;;
75737;SDS011;64356;45.638;13.764;2023-03-21T07:14:09;27.45;;;17.65;;
75737;SDS011;64356;45.638;13.764;2023-03-21T07:16:35;23.50;;;14.48;;
75737;SDS011;64356;45.638;13.764;2023-03-21T07:19:01;20.98;;;15.05;;
75737;SDS011;64356;45.638;13.764;2023-03-21T07:21:27;23.33;;;13.75;;
75737;SDS011;64356;45.638;13.764;2023-03-21T07:23:52;29.13;;;14.02;;
75737;SDS011;64356;45.638;13.764;2023-03-21T07:26:18;19.73;;;12.95;;
75737;SDS011;64356;45.638;13.764;2023-03-21T07:28:44;18.80;;;12.90;;
75737;SDS011;64356;45.638;13.764;2023-03-21T07:31:14;16.15;;;11.57;;
75737;SDS011;64356;45.638;13.764;2023-03-21T07:36:08;20.17;;;12.55;;
75737;SDS011;64356;45.638;13.764;2023-03-21T07:38:36;21.17;;;12.23;;
75737;SDS011;64356;45.638;13.764;2023-03-21T07:41:02;17.55;;;11.10;;
75737;SDS011;64356;45.638;13.764;2023-03-21T07:43:28;26.23;;;11.95;;
75737;SDS011;64356;45.638;13.764;2023-03-21T07:45:57;22.08;;;12.02;;
75737;SDS011;64356;45.638;13.764;2023-03-21T07:48:23;15.43;;;11.18;;
75737;SDS011;64356;45.638;13.764;2023-03-21T07:50:49;17.83;;;10.32;;
75737;SDS011;64356;45.638;13.764;2023-03-21T07:53:15;15.48;;;11.23;;
75737;SDS011;64356;45.638;13.764;2023-03-21T07:55:41;17.70;;;10.48;;
75737;SDS011;64356;45.638;13.764;2023-03-21T07:58:06;13.30;;;10.70;;
75737;SDS011;64356;45.638;13.764;2023-03-21T08:00:32;22.48;;;12.93;;
75737;SDS011;64356;45.638;13.764;2023-03-21T08:02:58;15.45;;;11.70;;
75737;SDS011;64356;45.638;13.764;2023-03-21T08:05:28;24.38;;;11.85;;
75737;SDS011;64356;45.638;13.764;2023-03-21T08:07:58;18.88;;;11.77;;
75737;SDS011;64356;45.638;13.764;2023-03-21T08:10:24;19.38;;;11.48;;
75737;SDS011;64356;45.638;13.764;2023-03-21T08:12:50;19.05;;;10.77;;
75737;SDS011;64356;45.638;13.764;2023-03-21T08:15:16;21.70;;;10.35;;
75737;SDS011;64356;45.638;13.764;2023-03-21T08:17:42;19.73;;;10.85;;
75737;SDS011;64356;45.638;13.764;2023-03-21T08:20:10;15.57;;;9.90;;
75737;SDS011;64356;45.638;13.764;2023-03-21T08:22:41;21.15;;;9.60;;
75737;SDS011;64356;45.638;13.764;2023-03-21T08:25:08;16.65;;;10.63;;
75737;SDS011;64356;45.638;13.764;2023-03-21T08:27:37;14.52;;;9.05;;
75737;SDS011;64356;45.638;13.764;2023-03-21T08:30:04;17.58;;;9.05;;
75737;SDS011;64356;45.638;13.764;2023-03-21T08:32:30;16.65;;;10.13;;
75737;SDS011;64356;45.638;13.764;2023-03-21T08:34:57;16.83;;;9.57;;
75737;SDS011;64356;45.638;13.764;2023-03-21T08:37:25;13.27;;;9.15;;
75737;SDS011;64356;45.638;13.764;2023-03-21T08:39:51;19.45;;;10.63;;
75737;SDS011;64356;45.638;13.764;2023-03-21T08:42:17;14.85;;;9.23;;
75737;SDS011;64356;45.638;13.764;2023-03-21T08:44:43;13.15;;;9.73;;
75737;SDS011;64356;45.638;13.764;2023-03-21T08:47:08;19.25;;;9.35;;
75737;SDS011;64356;45.638;13.764;2023-03-21T08:49:34;14.02;;;9.48;;
75737;SDS011;64356;45.638;13.764;2023-03-21T08:52:00;14.75;;;10.13;;
75737;SDS011;64356;45.638;13.764;2023-03-21T08:54:26;23.95;;;9.32;;
75737;SDS011;64356;45.638;13.764;2023-03-21T08:56:52;16.15;;;9.65;;
75737;SDS011;64356;45.638;13.764;2023-03-21T08:59:18;13.52;;;9.48;;
75737;SDS011;64356;45.638;13.764;2023-03-21T09:01:44;25.85;;;11.45;;
75737;SDS011;64356;45.638;13.764;2023-03-21T09:04:10;27.70;;;11.70;;
75737;SDS011;64356;45.638;13.764;2023-03-21T09:06:36;28.65;;;11.48;;
75737;SDS011;64356;45.638;13.764;2023-03-21T09:09:05;28.58;;;10.20;;
75737;SDS011;64356;45.638;13.764;2023-03-21T09:11:32;16.02;;;9.23;;
75737;SDS011;64356;45.638;13.764;2023-03-21T09:13:59;42.33;;;10.82;;
75737;SDS011;64356;45.638;13.764;2023-03-21T09:16:26;17.05;;;9.48;;
75737;SDS011;64356;45.638;13.764;2023-03-21T09:18:51;21.27;;;10.60;;
75737;SDS011;64356;45.638;13.764;2023-03-21T09:21:20;17.92;;;9.75;;
75737;SDS011;64356;45.638;13.764;2023-03-21T09:23:47;18.85;;;9.20;;
75737;SDS011;64356;45.638;13.764;2023-03-21T09:26:16;19.88;;;8.85;;
75737;SDS011;64356;45.638;13.764;2023-03-21T09:28:43;22.15;;;8.57;;
75737;SDS011;64356;45.638;13.764;2023-03-21T09:31:10;27.08;;;9.00;;
75737;SDS011;64356;45.638;13.764;2023-03-21T09:33:41;21.40;;;7.63;;
75737;SDS011;64356;45.638;13.764;2023-03-21T09:36:07;18.02;;;8.65;;
75737;SDS011;64356;45.638;13.764;2023-03-21T09:38:36;19.60;;;8.68;;
75737;SDS011;64356;45.638;13.764;2023-03-21T09:44:02;19.15;;;8.43;;
75737;SDS011;64356;45.638;13.764;2023-03-21T09:49:21;13.07;;;8.35;;
75737;SDS011;64356;45.638;13.764;2023-03-21T09:51:54;19.33;;;8.52;;
75737;SDS011;64356;45.638;13.764;2023-03-21T09:54:30;21.63;;;9.07;;
75737;SDS011;64356;45.638;13.764;2023-03-21T09:57:02;20.30;;;8.18;;
75737;SDS011;64356;45.638;13.764;2023-03-21T09:59:36;28.63;;;9.00;;
75737;SDS011;64356;45.638;13.764;2023-03-21T10:02:48;24.85;;;8.10;;
75737;SDS011;64356;45.638;13.764;2023-03-21T10:05:01;24.85;;;8.15;;
75737;SDS011;64356;45.638;13.764;2023-03-21T10:07:36;17.88;;;8.05;;
75737;SDS011;64356;45.638;13.764;2023-03-21T10:10:09;26.20;;;7.78;;
75737;SDS011;64356;45.638;13.764;2023-03-21T10:12:40;24.60;;;7.68;;
75737;SDS011;64356;45.638;13.764;2023-03-21T10:15:09;25.73;;;8.85;;
75737;SDS011;64356;45.638;13.764;2023-03-21T10:17:40;29.15;;;8.43;;
75737;SDS011;64356;45.638;13.764;2023-03-21T10:22:45;21.73;;;8.05;;
75737;SDS011;64356;45.638;13.764;2023-03-21T10:25:14;18.50;;;7.22;;
75737;SDS011;64356;45.638;13.764;2023-03-21T10:27:43;28.90;;;8.60;;
75737;SDS011;64356;45.638;13.764;2023-03-21T10:30:17;18.42;;;8.63;;
75737;SDS011;64356;45.638;13.764;2023-03-21T10:32:49;19.58;;;8.23;;
75737;SDS011;64356;45.638;13.764;2023-03-21T10:35:15;26.58;;;8.75;;
75737;SDS011;64356;45.638;13.764;2023-03-21T10:37:41;18.70;;;7.88;;
75737;SDS011;64356;45.638;13.764;2023-03-21T10:40:09;17.23;;;8.27;;
75737;SDS011;64356;45.638;13.764;2023-03-21T10:42:40;23.35;;;8.10;;
75737;SDS011;64356;45.638;13.764;2023-03-21T10:45:13;15.85;;;7.63;;
75737;SDS011;64356;45.638;13.764;2023-03-21T10:47:41;21.30;;;7.82;;
75737;SDS011;64356;45.638;13.764;2023-03-21T10:50:08;20.17;;;8.90;;
75737;SDS011;64356;45.638;13.764;2023-03-21T10:52:42;13.98;;;8.95;;
75737;SDS011;64356;45.638;13.764;2023-03-21T10:55:16;20.85;;;8.00;;
75737;SDS011;64356;45.638;13.764;2023-03-21T10:57:44;35.63;;;7.82;;
75737;SDS011;64356;45.638;13.764;2023-03-21T11:00:12;22.67;;;8.50;;
75737;SDS011;64356;45.638;13.764;2023-03-21T11:02:46;54.78;;;9.18;;
75737;SDS011;64356;45.638;13.764;2023-03-21T11:05:19;13.98;;;7.78;;
75737;SDS011;64356;45.638;13.764;2023-03-21T11:07:57;29.58;;;8.35;;
75737;SDS011;64356;45.638;13.764;2023-03-21T11:10:26;31.77;;;8.80;;
75737;SDS011;64356;45.638;13.764;2023-03-21T11:13:02;29.25;;;9.65;;
75737;SDS011;64356;45.638;13.764;2023-03-21T11:15:46;20.40;;;7.63;;
75737;SDS011;64356;45.638;13.764;2023-03-21T11:18:19;29.75;;;9.07;;
75737;SDS011;64356;45.638;13.764;2023-03-21T11:20:52;24.83;;;8.52;;
75737;SDS011;64356;45.638;13.764;2023-03-21T11:23:19;20.13;;;7.97;;
75737;SDS011;64356;45.638;13.764;2023-03-21T11:25:48;20.70;;;8.25;;
75737;SDS011;64356;45.638;13.764;2023-03-21T11:28:16;13.75;;;8.20;;
75737;SDS011;64356;45.638;13.764;2023-03-21T11:30:55;18.85;;;8.95;;
75737;SDS011;64356;45.638;13.764;2023-03-21T11:33:24;18.08;;;7.30;;
75737;SDS011;64356;45.638;13.764;2023-03-21T11:36:02;30.70;;;8.80;;
75737;SDS011;64356;45.638;13.764;2023-03-21T11:38:39;26.02;;;7.85;;
75737;SDS011;64356;45.638;13.764;2023-03-21T11:41:05;23.30;;;8.57;;
75737;SDS011;64356;45.638;13.764;2023-03-21T11:43:35;13.60;;;7.40;;
75737;SDS011;64356;45.638;13.764;2023-03-21T11:46:11;22.38;;;8.10;;
75737;SDS011;64356;45.638;13.764;2023-03-21T11:48:42;16.83;;;8.27;;
75737;SDS011;64356;45.638;13.764;2023-03-21T11:53:50;9.55;;;6.57;;
75737;SDS011;64356;45.638;13.764;2023-03-21T11:58:59;32.35;;;7.90;;
75737;SDS011;64356;45.638;13.764;2023-03-21T12:18:41;37.63;;;11.05;;
75737;SDS011;64356;45.638;13.764;2023-03-21T12:26:46;34.10;;;9.05;;
75737;SDS011;64356;45.638;13.764;2023-03-21T12:37:20;19.25;;;8.32;;
75737;SDS011;64356;45.638;13.764;2023-03-21T12:39:49;15.25;;;8.45;;
75737;SDS011;64356;45.638;13.764;2023-03-21T12:45:22;17.58;;;8.35;;
75737;SDS011;64356;45.638;13.764;2023-03-21T12:47:58;25.77;;;10.52;;
75737;SDS011;64356;45.638;13.764;2023-03-21T12:50:33;32.63;;;12.05;;
75737;SDS011;64356;45.638;13.764;2023-03-21T12:56:04;28.00;;;13.00;;
75737;SDS011;64356;45.638;13.764;2023-03-21T12:58:38;20.67;;;13.45;;
75737;SDS011;64356;45.638;13.764;2023-03-21T13:01:14;19.23;;;12.85;;
75737;SDS011;64356;45.638;13.764;2023-03-21T13:03:43;16.30;;;13.57;;
75737;SDS011;64356;45.638;13.764;2023-03-21T13:06:16;18.77;;;14.77;;
75737;SDS011;64356;45.638;13.764;2023-03-21T13:11:28;17.92;;;15.05;;
75737;SDS011;64356;45.638;13.764;2023-03-21T13:24:17;28.10;;;15.10;;
75737;SDS011;64356;45.638;13.764;2023-03-21T13:29:53;22.35;;;14.13;;
75737;SDS011;64356;45.638;13.764;2023-03-21T13:32:33;22.60;;;13.70;;
75737;SDS011;64356;45.638;13.764;2023-03-21T13:35:11;18.42;;;11.70;;
75737;SDS011;64356;45.638;13.764;2023-03-21T13:37:55;25.83;;;11.13;;
75737;SDS011;64356;45.638;13.764;2023-03-21T13:40:24;24.92;;;11.55;;
75737;SDS011;64356;45.638;13.764;2023-03-21T13:42:59;18.20;;;10.80;;
75737;SDS011;64356;45.638;13.764;2023-03-21T13:45:30;31.17;;;11.60;;
75737;SDS011;64356;45.638;13.764;2023-03-21T13:47:58;19.60;;;11.18;;
75737;SDS011;64356;45.638;13.764;2023-03-21T13:50:29;48.63;;;12.00;;
75737;SDS011;64356;45.638;13.764;2023-03-21T13:55:44;28.20;;;12.35;;
75737;SDS011;64356;45.638;13.764;2023-03-21T13:58:22;32.22;;;12.02;;
75737;SDS011;64356;45.638;13.764;2023-03-21T14:01:25;46.45;;;11.90;;
75737;SDS011;64356;45.638;13.764;2023-03-21T14:03:47;24.98;;;11.07;;
75737;SDS011;64356;45.638;13.764;2023-03-21T14:06:14;21.80;;;11.38;;
75737;SDS011;64356;45.638;13.764;2023-03-21T14:08:43;26.23;;;12.13;;
75737;SDS011;64356;45.638;13.764;2023-03-21T14:11:12;18.15;;;12.43;;
75737;SDS011;64356;45.638;13.764;2023-03-21T14:13:42;18.58;;;12.32;;
75737;SDS011;64356;45.638;13.764;2023-03-21T14:16:10;24.33;;;12.63;;
75737;SDS011;64356;45.638;13.764;2023-03-21T14:18:52;30.48;;;13.73;;
75737;SDS011;64356;45.638;13.764;2023-03-21T14:21:21;23.83;;;12.75;;
75737;SDS011;64356;45.638;13.764;2023-03-21T14:23:59;31.02;;;14.40;;
75737;SDS011;64356;45.638;13.764;2023-03-21T14:26:32;26.15;;;14.02;;
75737;SDS011;64356;45.638;13.764;2023-03-21T14:29:04;21.75;;;14.05;;
75737;SDS011;64356;45.638;13.764;2023-03-21T14:31:31;34.35;;;15.70;;
75737;SDS011;64356;45.638;13.764;2023-03-21T14:33:57;36.28;;;14.90;;
75737;SDS011;64356;45.638;13.764;2023-03-21T14:36:29;24.98;;;14.70;;
75737;SDS011;64356;45.638;13.764;2023-03-21T14:39:19;22.88;;;14.52;;
75737;SDS011;64356;45.638;13.764;2023-03-21T14:41:51;23.88;;;15.38;;
75737;SDS011;64356;45.638;13.764;2023-03-21T14:46:52;31.05;;;18.52;;
75737;SDS011;64356;45.638;13.764;2023-03-21T14:49:30;25.58;;;17.55;;
75737;SDS011;64356;45.638;13.764;2023-03-21T14:52:04;31.13;;;19.23;;
75737;SDS011;64356;45.638;13.764;2023-03-21T14:54:35;26.50;;;19.02;;
75737;SDS011;64356;45.638;13.764;2023-03-21T14:57:06;25.08;;;19.20;;
75737;SDS011;64356;45.638;13.764;2023-03-21T14:59:38;28.77;;;20.17;;
75737;SDS011;64356;45.638;13.764;2023-03-21T15:02:11;23.77;;;18.10;;
75737;SDS011;64356;45.638;13.764;2023-03-21T15:05:20;22.45;;;17.15;;
75737;SDS011;64356;45.638;13.764;2023-03-21T15:08:06;21.40;;;17.35;;
75737;SDS011;64356;45.638;13.764;2023-03-21T15:10:32;32.78;;;19.10;;
75737;SDS011;64356;45.638;13.764;2023-03-21T15:12:59;31.35;;;16.02;;
75737;SDS011;64356;45.638;13.764;2023-03-21T15:15:27;22.95;;;13.15;;
75737;SDS011;64356;45.638;13.764;2023-03-21T15:17:57;34.58;;;14.00;;
75737;SDS011;64356;45.638;13.764;2023-03-21T15:20:28;26.48;;;12.45;;
75737;SDS011;64356;45.638;13.764;2023-03-21T15:22:58;24.25;;;13.60;;
75737;SDS011;64356;45.638;13.764;2023-03-21T15:25:29;30.10;;;15.15;;
75737;SDS011;64356;45.638;13.764;2023-03-21T15:27:58;25.17;;;17.55;;
75737;SDS011;64356;45.638;13.764;2023-03-21T15:30:28;26.65;;;16.90;;
75737;SDS011;64356;45.638;13.764;2023-03-21T15:32:56;27.60;;;18.52;;
75737;SDS011;64356;45.638;13.764;2023-03-21T15:35:28;24.35;;;17.42;;
75737;SDS011;64356;45.638;13.764;2023-03-21T15:38:01;22.35;;;17.10;;
75737;SDS011;64356;45.638;13.764;2023-03-21T15:40:29;22.98;;;16.50;;
75737;SDS011;64356;45.638;13.764;2023-03-21T15:43:14;21.42;;;15.65;;
75737;SDS011;64356;45.638;13.764;2023-03-21T15:46:00;25.05;;;16.05;;
75737;SDS011;64356;45.638;13.764;2023-03-21T15:48:26;22.92;;;14.82;;
75737;SDS011;64356;45.638;13.764;2023-03-21T15:51:02;26.80;;;17.10;;
75737;SDS011;64356;45.638;13.764;2023-03-21T15:53:33;21.13;;;16.63;;
75737;SDS011;64356;45.638;13.764;2023-03-21T15:56:01;27.73;;;17.20;;
75737;SDS011;64356;45.638;13.764;2023-03-21T15:58:33;22.27;;;16.50;;
75737;SDS011;64356;45.638;13.764;2023-03-21T16:01:03;21.13;;;16.63;;
75737;SDS011;64356;45.638;13.764;2023-03-21T16:03:34;22.08;;;15.77;;
75737;SDS011;64356;45.638;13.764;2023-03-21T16:06:06;27.85;;;17.20;;
75737;SDS011;64356;45.638;13.764;2023-03-21T16:08:45;23.92;;;16.60;;
75737;SDS011;64356;45.638;13.764;2023-03-21T16:11:26;23.13;;;18.45;;
75737;SDS011;64356;45.638;13.764;2023-03-21T16:14:00;20.75;;;14.93;;
75737;SDS011;64356;45.638;13.764;2023-03-21T16:16:27;19.75;;;14.32;;
75737;SDS011;64356;45.638;13.764;2023-03-21T16:18:54;20.40;;;13.20;;
75737;SDS011;64356;45.638;13.764;2023-03-21T16:21:22;21.70;;;14.20;;
75737;SDS011;64356;45.638;13.764;2023-03-21T16:23:52;22.30;;;13.43;;
75737;SDS011;64356;45.638;13.764;2023-03-21T16:26:20;15.93;;;12.18;;